sensor_id;sensor_type;location;lat;lon;timestamp;temperature;humidity
36594;DHT22;22603;47.900;8.146;2023-05-07T00:01:35;8.70;99.90
36594;DHT22;22603;47.900;8.146;2023-05-07T00:04:23;8.70;99.90
36594;DHT22;22603;47.900;8.146;2023-05-07T00:07:10;8.70;99.90
36594;DHT22;22603;47.900;8.146;2023-05-07T00:09:58;8.70;99.90
36594;DHT22;22603;47.900;8.146;2023-05-07T00:12:45;8.60;99.90
36594;DHT22;22603;47.900;8.146;2023-05-07T00:15:32;8.60;99.90
36594;DHT22;22603;47.900;8.146;2023-05-07T00:18:19;8.60;99.90
36594;DHT22;22603;47.900;8.146;2023-05-07T00:21:08;8.60;99.90
36594;DHT22;22603;47.900;8.146;2023-05-07T00:23:55;8.60;99.90
36594;DHT22;22603;47.900;8.146;2023-05-07T00:26:46;8.50;99.90
36594;DHT22;22603;47.900;8.146;2023-05-07T00:29:33;8.50;99.90
36594;DHT22;22603;47.900;8.146;2023-05-07T00:32:20;8.50;99.90
36594;DHT22;22603;47.900;8.146;2023-05-07T00:35:08;8.40;99.90
36594;DHT22;22603;47.900;8.146;2023-05-07T00:37:56;8.40;99.90
36594;DHT22;22603;47.900;8.146;2023-05-07T00:40:43;8.40;99.90
36594;DHT22;22603;47.900;8.146;2023-05-07T00:43:32;8.40;99.90
36594;DHT22;22603;47.900;8.146;2023-05-07T00:46:20;8.50;99.90
36594;DHT22;22603;47.900;8.146;2023-05-07T00:49:08;8.40;99.90
36594;DHT22;22603;47.900;8.146;2023-05-07T00:51:55;8.40;99.90
36594;DHT22;22603;47.900;8.146;2023-05-07T00:54:43;8.40;99.90
36594;DHT22;22603;47.900;8.146;2023-05-07T00:57:33;8.40;99.90
36594;DHT22;22603;47.900;8.146;2023-05-07T01:00:23;8.40;99.90
36594;DHT22;22603;47.900;8.146;2023-05-07T01:03:11;8.30;99.90
36594;DHT22;22603;47.900;8.146;2023-05-07T01:05:59;8.40;99.90
36594;DHT22;22603;47.900;8.146;2023-05-07T01:08:48;8.30;99.90
36594;DHT22;22603;47.900;8.146;2023-05-07T01:11:39;8.40;99.90
36594;DHT22;22603;47.900;8.146;2023-05-07T01:14:29;8.30;99.90
36594;DHT22;22603;47.900;8.146;2023-05-07T01:17:20;8.30;99.90
36594;DHT22;22603;47.900;8.146;2023-05-07T01:20:08;8.30;99.90
36594;DHT22;22603;47.900;8.146;2023-05-07T01:22:57;8.30;99.90
36594;DHT22;22603;47.900;8.146;2023-05-07T01:25:51;8.40;99.90
36594;DHT22;22603;47.900;8.146;2023-05-07T01:28:39;8.30;99.90
36594;DHT22;22603;47.900;8.146;2023-05-07T01:31:26;8.30;99.90
36594;DHT22;22603;47.900;8.146;2023-05-07T01:34:13;8.30;99.90
36594;DHT22;22603;47.900;8.146;2023-05-07T01:37:01;8.40;99.90
36594;DHT22;22603;47.900;8.146;2023-05-07T01:39:50;8.30;99.90
36594;DHT22;22603;47.900;8.146;2023-05-07T01:42:38;8.20;99.90
36594;DHT22;22603;47.900;8.146;2023-05-07T01:45:25;8.20;99.90
36594;DHT22;22603;47.900;8.146;2023-05-07T01:48:14;8.20;99.90
36594;DHT22;22603;47.900;8.146;2023-05-07T01:51:02;8.10;99.90
36594;DHT22;22603;47.900;8.146;2023-05-07T01:53:51;8.00;99.90
36594;DHT22;22603;47.900;8.146;2023-05-07T01:56:40;8.00;99.90
36594;DHT22;22603;47.900;8.146;2023-05-07T01:59:28;8.00;99.90
36594;DHT22;22603;47.900;8.146;2023-05-07T02:02:15;7.90;99.90
36594;DHT22;22603;47.900;8.146;2023-05-07T02:05:03;7.90;99.90
36594;DHT22;22603;47.900;8.146;2023-05-07T02:07:50;7.90;99.90
36594;DHT22;22603;47.900;8.146;2023-05-07T02:10:37;7.80;99.90
36594;DHT22;22603;47.900;8.146;2023-05-07T02:13:26;7.80;99.90
36594;DHT22;22603;47.900;8.146;2023-05-07T02:16:13;7.70;99.90
36594;DHT22;22603;47.900;8.146;2023-05-07T02:19:00;7.70;99.90
36594;DHT22;22603;47.900;8.146;2023-05-07T02:21:47;7.70;99.90
36594;DHT22;22603;47.900;8.146;2023-05-07T02:24:34;7.70;99.90
36594;DHT22;22603;47.900;8.146;2023-05-07T02:27:21;7.60;99.90
36594;DHT22;22603;47.900;8.146;2023-05-07T02:30:16;7.50;99.90
36594;DHT22;22603;47.900;8.146;2023-05-07T02:33:04;7.50;99.90
36594;DHT22;22603;47.900;8.146;2023-05-07T02:35:52;7.50;99.90
36594;DHT22;22603;47.900;8.146;2023-05-07T02:38:39;7.50;99.90
36594;DHT22;22603;47.900;8.146;2023-05-07T02:41:26;7.40;99.90
36594;DHT22;22603;47.900;8.146;2023-05-07T02:44:14;7.40;99.90
36594;DHT22;22603;47.900;8.146;2023-05-07T02:47:02;7.40;99.90
36594;DHT22;22603;47.900;8.146;2023-05-07T02:49:48;7.30;99.90
36594;DHT22;22603;47.900;8.146;2023-05-07T02:52:35;7.20;99.90
36594;DHT22;22603;47.900;8.146;2023-05-07T02:55:23;7.10;99.90
36594;DHT22;22603;47.900;8.146;2023-05-07T02:58:10;7.10;99.90
36594;DHT22;22603;47.900;8.146;2023-05-07T03:00:57;7.10;99.90
36594;DHT22;22603;47.900;8.146;2023-05-07T03:03:46;7.10;99.90
36594;DHT22;22603;47.900;8.146;2023-05-07T03:06:32;7.00;99.90
36594;DHT22;22603;47.900;8.146;2023-05-07T03:09:19;7.00;99.90
36594;DHT22;22603;47.900;8.146;2023-05-07T03:12:07;7.00;99.90
36594;DHT22;22603;47.900;8.146;2023-05-07T03:14:53;7.00;99.90
36594;DHT22;22603;47.900;8.146;2023-05-07T03:17:43;7.00;99.90
36594;DHT22;22603;47.900;8.146;2023-05-07T03:20:31;7.00;99.90
36594;DHT22;22603;47.900;8.146;2023-05-07T03:23:18;7.00;99.90
36594;DHT22;22603;47.900;8.146;2023-05-07T03:26:09;7.00;99.90
36594;DHT22;22603;47.900;8.146;2023-05-07T03:28:56;7.00;99.90
36594;DHT22;22603;47.900;8.146;2023-05-07T03:31:43;6.90;99.90
36594;DHT22;22603;47.900;8.146;2023-05-07T03:34:31;6.90;99.90
36594;DHT22;22603;47.900;8.146;2023-05-07T03:37:19;6.80;99.90
36594;DHT22;22603;47.900;8.146;2023-05-07T03:40:07;6.80;99.90
36594;DHT22;22603;47.900;8.146;2023-05-07T03:42:56;6.80;99.90
36594;DHT22;22603;47.900;8.146;2023-05-07T03:45:44;6.90;99.90
36594;DHT22;22603;47.900;8.146;2023-05-07T03:48:30;6.80;99.90
36594;DHT22;22603;47.900;8.146;2023-05-07T03:51:17;6.80;99.90
36594;DHT22;22603;47.900;8.146;2023-05-07T03:54:06;6.80;99.90
36594;DHT22;22603;47.900;8.146;2023-05-07T03:56:53;6.80;99.90
36594;DHT22;22603;47.900;8.146;2023-05-07T03:59:40;6.70;99.90
36594;DHT22;22603;47.900;8.146;2023-05-07T04:02:27;6.90;99.90
36594;DHT22;22603;47.900;8.146;2023-05-07T04:05:15;6.70;99.90
36594;DHT22;22603;47.900;8.146;2023-05-07T04:08:02;6.70;99.90
36594;DHT22;22603;47.900;8.146;2023-05-07T04:10:54;6.70;99.90
36594;DHT22;22603;47.900;8.146;2023-05-07T04:13:41;6.70;99.90
36594;DHT22;22603;47.900;8.146;2023-05-07T04:16:28;6.70;99.90
36594;DHT22;22603;47.900;8.146;2023-05-07T04:19:15;6.70;99.90
36594;DHT22;22603;47.900;8.146;2023-05-07T04:22:02;6.70;99.90
36594;DHT22;22603;47.900;8.146;2023-05-07T04:24:49;6.70;99.90
36594;DHT22;22603;47.900;8.146;2023-05-07T04:27:38;6.70;99.90
36594;DHT22;22603;47.900;8.146;2023-05-07T04:30:25;6.70;99.90
36594;DHT22;22603;47.900;8.146;2023-05-07T04:33:13;6.80;99.90
36594;DHT22;22603;47.900;8.146;2023-05-07T04:36:02;6.90;99.90
36594;DHT22;22603;47.900;8.146;2023-05-07T04:38:49;7.00;99.90
36594;DHT22;22603;47.900;8.146;2023-05-07T04:41:36;7.00;99.90
36594;DHT22;22603;47.900;8.146;2023-05-07T04:44:24;7.10;99.90
36594;DHT22;22603;47.900;8.146;2023-05-07T04:47:12;7.10;99.90
36594;DHT22;22603;47.900;8.146;2023-05-07T04:49:59;7.30;99.90
36594;DHT22;22603;47.900;8.146;2023-05-07T04:52:46;7.20;99.90
36594;DHT22;22603;47.900;8.146;2023-05-07T04:55:33;7.30;99.90
36594;DHT22;22603;47.900;8.146;2023-05-07T04:58:20;7.40;99.90
36594;DHT22;22603;47.900;8.146;2023-05-07T05:01:08;7.50;99.90
36594;DHT22;22603;47.900;8.146;2023-05-07T05:03:56;7.60;99.90
36594;DHT22;22603;47.900;8.146;2023-05-07T05:06:43;7.70;99.90
36594;DHT22;22603;47.900;8.146;2023-05-07T05:09:30;7.90;99.90
36594;DHT22;22603;47.900;8.146;2023-05-07T05:12:17;8.10;99.90
36594;DHT22;22603;47.900;8.146;2023-05-07T05:15:05;8.20;99.90
36594;DHT22;22603;47.900;8.146;2023-05-07T05:17:57;8.40;99.90
36594;DHT22;22603;47.900;8.146;2023-05-07T05:20:43;8.50;99.90
36594;DHT22;22603;47.900;8.146;2023-05-07T05:23:30;8.60;99.90
36594;DHT22;22603;47.900;8.146;2023-05-07T05:26:17;8.80;99.90
36594;DHT22;22603;47.900;8.146;2023-05-07T05:29:04;8.80;99.90
36594;DHT22;22603;47.900;8.146;2023-05-07T05:31:52;9.00;99.90
36594;DHT22;22603;47.900;8.146;2023-05-07T05:34:40;9.10;99.90
36594;DHT22;22603;47.900;8.146;2023-05-07T05:37:27;9.30;99.90
36594;DHT22;22603;47.900;8.146;2023-05-07T05:40:15;9.40;99.90
36594;DHT22;22603;47.900;8.146;2023-05-07T05:43:03;9.40;99.90
36594;DHT22;22603;47.900;8.146;2023-05-07T05:45:50;9.50;99.90
36594;DHT22;22603;47.900;8.146;2023-05-07T05:48:37;9.50;99.90
36594;DHT22;22603;47.900;8.146;2023-05-07T05:51:26;9.50;99.90
36594;DHT22;22603;47.900;8.146;2023-05-07T05:54:13;9.60;99.90
36594;DHT22;22603;47.900;8.146;2023-05-07T05:57:00;9.60;99.90
36594;DHT22;22603;47.900;8.146;2023-05-07T05:59:49;9.70;99.90
36594;DHT22;22603;47.900;8.146;2023-05-07T06:02:36;9.80;99.90
36594;DHT22;22603;47.900;8.146;2023-05-07T06:05:24;10.00;99.90
36594;DHT22;22603;47.900;8.146;2023-05-07T06:08:13;10.00;99.90
36594;DHT22;22603;47.900;8.146;2023-05-07T06:11:01;10.20;99.90
36594;DHT22;22603;47.900;8.146;2023-05-07T06:13:48;10.30;99.90
36594;DHT22;22603;47.900;8.146;2023-05-07T06:16:35;10.70;99.90
36594;DHT22;22603;47.900;8.146;2023-05-07T06:19:23;10.90;99.90
36594;DHT22;22603;47.900;8.146;2023-05-07T06:22:11;10.80;99.90
36594;DHT22;22603;47.900;8.146;2023-05-07T06:25:00;10.80;99.90
36594;DHT22;22603;47.900;8.146;2023-05-07T06:27:47;11.00;99.90
36594;DHT22;22603;47.900;8.146;2023-05-07T06:30:34;11.40;99.90
36594;DHT22;22603;47.900;8.146;2023-05-07T06:33:22;11.90;99.90
36594;DHT22;22603;47.900;8.146;2023-05-07T06:36:09;12.30;99.90
36594;DHT22;22603;47.900;8.146;2023-05-07T06:38:56;13.10;99.90
36594;DHT22;22603;47.900;8.146;2023-05-07T06:41:45;13.90;99.90
36594;DHT22;22603;47.900;8.146;2023-05-07T06:44:34;13.90;99.90
36594;DHT22;22603;47.900;8.146;2023-05-07T06:47:22;13.50;99.90
36594;DHT22;22603;47.900;8.146;2023-05-07T06:50:09;13.50;99.90
36594;DHT22;22603;47.900;8.146;2023-05-07T06:52:57;13.40;99.90
36594;DHT22;22603;47.900;8.146;2023-05-07T06:55:43;13.40;99.90
36594;DHT22;22603;47.900;8.146;2023-05-07T06:58:32;13.70;99.90
36594;DHT22;22603;47.900;8.146;2023-05-07T07:01:19;14.40;99.90
36594;DHT22;22603;47.900;8.146;2023-05-07T07:04:10;15.00;99.90
36594;DHT22;22603;47.900;8.146;2023-05-07T07:06:57;15.90;99.90
36594;DHT22;22603;47.900;8.146;2023-05-07T07:09:43;16.60;99.90
36594;DHT22;22603;47.900;8.146;2023-05-07T07:12:31;16.90;99.90
36594;DHT22;22603;47.900;8.146;2023-05-07T07:15:19;16.60;99.90
36594;DHT22;22603;47.900;8.146;2023-05-07T07:18:07;16.70;99.90
36594;DHT22;22603;47.900;8.146;2023-05-07T07:20:55;16.70;99.90
36594;DHT22;22603;47.900;8.146;2023-05-07T07:23:42;17.40;99.90
36594;DHT22;22603;47.900;8.146;2023-05-07T07:26:29;18.30;99.90
36594;DHT22;22603;47.900;8.146;2023-05-07T07:29:17;19.30;99.90
36594;DHT22;22603;47.900;8.146;2023-05-07T07:32:07;19.20;99.90
36594;DHT22;22603;47.900;8.146;2023-05-07T07:34:55;20.50;99.90
36594;DHT22;22603;47.900;8.146;2023-05-07T07:37:42;21.70;99.90
36594;DHT22;22603;47.900;8.146;2023-05-07T07:40:29;21.60;99.90
36594;DHT22;22603;47.900;8.146;2023-05-07T07:43:16;21.50;99.90
36594;DHT22;22603;47.900;8.146;2023-05-07T07:46:03;20.90;99.90
36594;DHT22;22603;47.900;8.146;2023-05-07T07:48:52;20.50;99.90
36594;DHT22;22603;47.900;8.146;2023-05-07T07:51:39;21.00;99.90
36594;DHT22;22603;47.900;8.146;2023-05-07T07:54:26;20.90;99.90
36594;DHT22;22603;47.900;8.146;2023-05-07T07:57:19;21.60;99.90
36594;DHT22;22603;47.900;8.146;2023-05-07T08:00:08;22.10;99.90
36594;DHT22;22603;47.900;8.146;2023-05-07T08:02:56;22.00;99.90
36594;DHT22;22603;47.900;8.146;2023-05-07T08:05:45;22.50;99.90
36594;DHT22;22603;47.900;8.146;2023-05-07T08:08:32;22.40;99.90
36594;DHT22;22603;47.900;8.146;2023-05-07T08:11:19;22.40;99.90
36594;DHT22;22603;47.900;8.146;2023-05-07T08:14:07;23.30;99.90
36594;DHT22;22603;47.900;8.146;2023-05-07T08:16:54;23.00;99.90
36594;DHT22;22603;47.900;8.146;2023-05-07T08:19:41;22.50;99.90
36594;DHT22;22603;47.900;8.146;2023-05-07T08:22:30;22.30;99.90
36594;DHT22;22603;47.900;8.146;2023-05-07T08:25:16;21.80;99.90
36594;DHT22;22603;47.900;8.146;2023-05-07T08:28:04;21.60;99.90
36594;DHT22;22603;47.900;8.146;2023-05-07T08:30:54;21.10;99.90
36594;DHT22;22603;47.900;8.146;2023-05-07T08:33:42;21.50;99.90
36594;DHT22;22603;47.900;8.146;2023-05-07T08:36:29;21.30;99.90
36594;DHT22;22603;47.900;8.146;2023-05-07T08:39:18;21.50;99.90
36594;DHT22;22603;47.900;8.146;2023-05-07T08:42:05;22.30;99.90
36594;DHT22;22603;47.900;8.146;2023-05-07T08:44:57;23.50;99.90
36594;DHT22;22603;47.900;8.146;2023-05-07T08:47:51;24.80;99.90
36594;DHT22;22603;47.900;8.146;2023-05-07T08:50:39;25.30;99.90
36594;DHT22;22603;47.900;8.146;2023-05-07T08:53:26;24.90;99.90
36594;DHT22;22603;47.900;8.146;2023-05-07T08:56:15;22.60;99.90
36594;DHT22;22603;47.900;8.146;2023-05-07T08:59:05;21.70;99.90
36594;DHT22;22603;47.900;8.146;2023-05-07T09:01:53;22.20;99.90
36594;DHT22;22603;47.900;8.146;2023-05-07T09:04:40;22.20;99.90
36594;DHT22;22603;47.900;8.146;2023-05-07T09:07:27;22.00;99.90
36594;DHT22;22603;47.900;8.146;2023-05-07T09:10:14;21.10;99.90
36594;DHT22;22603;47.900;8.146;2023-05-07T09:13:04;20.90;99.90
36594;DHT22;22603;47.900;8.146;2023-05-07T09:15:50;20.70;99.90
36594;DHT22;22603;47.900;8.146;2023-05-07T09:18:41;20.40;99.90
36594;DHT22;22603;47.900;8.146;2023-05-07T09:21:28;20.10;99.90
36594;DHT22;22603;47.900;8.146;2023-05-07T09:24:16;20.50;99.90
36594;DHT22;22603;47.900;8.146;2023-05-07T09:27:03;20.70;99.90
36594;DHT22;22603;47.900;8.146;2023-05-07T09:29:52;20.80;99.90
36594;DHT22;22603;47.900;8.146;2023-05-07T09:32:41;20.80;99.90
36594;DHT22;22603;47.900;8.146;2023-05-07T09:35:28;20.70;99.90
36594;DHT22;22603;47.900;8.146;2023-05-07T09:38:18;20.30;99.90
36594;DHT22;22603;47.900;8.146;2023-05-07T09:41:08;20.30;99.90
36594;DHT22;22603;47.900;8.146;2023-05-07T09:43:55;20.20;99.90
36594;DHT22;22603;47.900;8.146;2023-05-07T09:46:44;20.10;99.90
36594;DHT22;22603;47.900;8.146;2023-05-07T09:49:35;19.90;99.90
36594;DHT22;22603;47.900;8.146;2023-05-07T09:52:23;19.40;99.90
36594;DHT22;22603;47.900;8.146;2023-05-07T09:55:11;18.90;99.90
36594;DHT22;22603;47.900;8.146;2023-05-07T09:57:59;18.50;99.90
36594;DHT22;22603;47.900;8.146;2023-05-07T10:00:48;18.20;99.90
36594;DHT22;22603;47.900;8.146;2023-05-07T10:03:40;17.90;99.90
36594;DHT22;22603;47.900;8.146;2023-05-07T10:06:27;17.50;99.90
36594;DHT22;22603;47.900;8.146;2023-05-07T10:09:15;17.10;99.90
36594;DHT22;22603;47.900;8.146;2023-05-07T10:12:04;16.70;99.90
36594;DHT22;22603;47.900;8.146;2023-05-07T10:14:52;16.30;99.90
36594;DHT22;22603;47.900;8.146;2023-05-07T10:17:40;16.00;99.90
36594;DHT22;22603;47.900;8.146;2023-05-07T10:20:28;15.60;99.90
36594;DHT22;22603;47.900;8.146;2023-05-07T10:23:20;15.50;99.90
36594;DHT22;22603;47.900;8.146;2023-05-07T10:26:08;15.20;99.90
36594;DHT22;22603;47.900;8.146;2023-05-07T10:28:58;14.80;99.90
36594;DHT22;22603;47.900;8.146;2023-05-07T10:31:55;14.70;99.90
36594;DHT22;22603;47.900;8.146;2023-05-07T10:34:45;14.50;99.90
36594;DHT22;22603;47.900;8.146;2023-05-07T10:37:35;14.50;99.90
36594;DHT22;22603;47.900;8.146;2023-05-07T10:40:22;14.50;99.90
36594;DHT22;22603;47.900;8.146;2023-05-07T10:43:10;14.80;99.90
36594;DHT22;22603;47.900;8.146;2023-05-07T10:46:10;15.30;99.90
36594;DHT22;22603;47.900;8.146;2023-05-07T10:49:08;15.60;99.90
36594;DHT22;22603;47.900;8.146;2023-05-07T10:52:14;16.00;99.90
36594;DHT22;22603;47.900;8.146;2023-05-07T10:55:21;16.70;99.90
36594;DHT22;22603;47.900;8.146;2023-05-07T10:58:29;17.60;99.90
36594;DHT22;22603;47.900;8.146;2023-05-07T11:01:50;18.50;99.90
36594;DHT22;22603;47.900;8.146;2023-05-07T11:04:38;19.00;99.90
36594;DHT22;22603;47.900;8.146;2023-05-07T11:07:29;19.50;99.90
36594;DHT22;22603;47.900;8.146;2023-05-07T11:10:16;20.30;99.90
36594;DHT22;22603;47.900;8.146;2023-05-07T11:13:05;20.90;99.90
36594;DHT22;22603;47.900;8.146;2023-05-07T11:15:52;20.80;99.90
36594;DHT22;22603;47.900;8.146;2023-05-07T11:18:47;20.70;99.90
36594;DHT22;22603;47.900;8.146;2023-05-07T11:21:35;20.70;99.90
36594;DHT22;22603;47.900;8.146;2023-05-07T11:24:22;21.10;99.90
36594;DHT22;22603;47.900;8.146;2023-05-07T11:27:10;21.20;99.90
36594;DHT22;22603;47.900;8.146;2023-05-07T11:29:59;21.10;99.90
36594;DHT22;22603;47.900;8.146;2023-05-07T11:32:47;21.50;99.90
36594;DHT22;22603;47.900;8.146;2023-05-07T11:35:35;21.70;99.90
36594;DHT22;22603;47.900;8.146;2023-05-07T11:38:22;21.50;99.90
36594;DHT22;22603;47.900;8.146;2023-05-07T11:41:09;20.90;99.90
36594;DHT22;22603;47.900;8.146;2023-05-07T11:43:58;20.20;99.90
36594;DHT22;22603;47.900;8.146;2023-05-07T11:46:49;19.60;99.90
36594;DHT22;22603;47.900;8.146;2023-05-07T11:49:36;19.50;99.90
36594;DHT22;22603;47.900;8.146;2023-05-07T11:52:24;20.10;99.90
36594;DHT22;22603;47.900;8.146;2023-05-07T11:55:11;20.10;99.90
36594;DHT22;22603;47.900;8.146;2023-05-07T11:57:58;20.50;99.90
36594;DHT22;22603;47.900;8.146;2023-05-07T12:00:48;20.70;99.90
36594;DHT22;22603;47.900;8.146;2023-05-07T12:03:39;20.40;99.90
36594;DHT22;22603;47.900;8.146;2023-05-07T12:06:28;20.60;99.90
36594;DHT22;22603;47.900;8.146;2023-05-07T12:09:15;20.70;99.90
36594;DHT22;22603;47.900;8.146;2023-05-07T12:12:05;21.10;99.90
36594;DHT22;22603;47.900;8.146;2023-05-07T12:14:52;21.00;99.90
36594;DHT22;22603;47.900;8.146;2023-05-07T12:17:40;21.10;99.90
36594;DHT22;22603;47.900;8.146;2023-05-07T12:20:28;20.90;99.90
36594;DHT22;22603;47.900;8.146;2023-05-07T12:23:16;20.90;99.90
36594;DHT22;22603;47.900;8.146;2023-05-07T12:26:03;21.10;99.90
36594;DHT22;22603;47.900;8.146;2023-05-07T12:28:52;21.10;99.90
36594;DHT22;22603;47.900;8.146;2023-05-07T12:31:40;20.50;99.90
36594;DHT22;22603;47.900;8.146;2023-05-07T12:34:28;20.30;99.90
36594;DHT22;22603;47.900;8.146;2023-05-07T12:37:16;20.20;99.90
36594;DHT22;22603;47.900;8.146;2023-05-07T12:40:04;20.10;99.90
36594;DHT22;22603;47.900;8.146;2023-05-07T12:42:53;20.20;99.90
36594;DHT22;22603;47.900;8.146;2023-05-07T12:45:44;20.50;99.90
36594;DHT22;22603;47.900;8.146;2023-05-07T12:48:32;20.80;99.90
36594;DHT22;22603;47.900;8.146;2023-05-07T12:51:19;20.70;99.90
36594;DHT22;22603;47.900;8.146;2023-05-07T12:54:08;20.50;99.90
36594;DHT22;22603;47.900;8.146;2023-05-07T12:57:01;20.10;99.90
36594;DHT22;22603;47.900;8.146;2023-05-07T12:59:48;19.90;99.90
36594;DHT22;22603;47.900;8.146;2023-05-07T13:02:38;19.60;99.90
36594;DHT22;22603;47.900;8.146;2023-05-07T13:05:25;19.20;99.90
36594;DHT22;22603;47.900;8.146;2023-05-07T13:08:12;19.00;99.90
36594;DHT22;22603;47.900;8.146;2023-05-07T13:11:12;18.60;99.90
36594;DHT22;22603;47.900;8.146;2023-05-07T13:13:59;18.30;99.90
36594;DHT22;22603;47.900;8.146;2023-05-07T13:16:46;17.90;99.90
36594;DHT22;22603;47.900;8.146;2023-05-07T13:19:33;17.40;99.90
36594;DHT22;22603;47.900;8.146;2023-05-07T13:22:20;17.30;99.90
36594;DHT22;22603;47.900;8.146;2023-05-07T13:25:08;16.90;99.90
36594;DHT22;22603;47.900;8.146;2023-05-07T13:27:58;16.50;99.90
36594;DHT22;22603;47.900;8.146;2023-05-07T13:30:55;15.80;99.90
36594;DHT22;22603;47.900;8.146;2023-05-07T13:33:42;15.30;99.90
36594;DHT22;22603;47.900;8.146;2023-05-07T13:36:29;14.90;99.90
36594;DHT22;22603;47.900;8.146;2023-05-07T13:39:18;14.80;99.90
36594;DHT22;22603;47.900;8.146;2023-05-07T13:42:05;14.60;99.90
36594;DHT22;22603;47.900;8.146;2023-05-07T13:44:54;14.60;99.90
36594;DHT22;22603;47.900;8.146;2023-05-07T13:47:42;14.50;99.90
36594;DHT22;22603;47.900;8.146;2023-05-07T13:50:30;14.30;99.90
36594;DHT22;22603;47.900;8.146;2023-05-07T13:53:17;14.30;99.90
36594;DHT22;22603;47.900;8.146;2023-05-07T13:56:07;14.20;99.90
36594;DHT22;22603;47.900;8.146;2023-05-07T13:58:55;14.20;99.90
36594;DHT22;22603;47.900;8.146;2023-05-07T14:01:47;14.00;99.90
36594;DHT22;22603;47.900;8.146;2023-05-07T14:04:33;14.00;99.90
36594;DHT22;22603;47.900;8.146;2023-05-07T14:07:20;14.10;99.90
36594;DHT22;22603;47.900;8.146;2023-05-07T14:10:08;13.80;99.90
36594;DHT22;22603;47.900;8.146;2023-05-07T14:12:56;14.00;99.90
36594;DHT22;22603;47.900;8.146;2023-05-07T14:15:43;14.30;99.90
36594;DHT22;22603;47.900;8.146;2023-05-07T14:18:33;14.40;99.90
36594;DHT22;22603;47.900;8.146;2023-05-07T14:21:22;14.50;99.90
36594;DHT22;22603;47.900;8.146;2023-05-07T14:24:10;14.70;99.90
36594;DHT22;22603;47.900;8.146;2023-05-07T14:26:57;14.70;99.90
36594;DHT22;22603;47.900;8.146;2023-05-07T14:29:44;14.90;99.90
36594;DHT22;22603;47.900;8.146;2023-05-07T14:32:38;15.00;99.90
36594;DHT22;22603;47.900;8.146;2023-05-07T14:35:27;15.20;99.90
36594;DHT22;22603;47.900;8.146;2023-05-07T14:38:14;15.20;99.90
36594;DHT22;22603;47.900;8.146;2023-05-07T14:41:00;15.30;99.90
36594;DHT22;22603;47.900;8.146;2023-05-07T14:43:47;15.60;99.90
36594;DHT22;22603;47.900;8.146;2023-05-07T14:46:36;16.00;99.90
36594;DHT22;22603;47.900;8.146;2023-05-07T14:49:23;16.40;99.90
36594;DHT22;22603;47.900;8.146;2023-05-07T14:52:12;16.70;99.90
36594;DHT22;22603;47.900;8.146;2023-05-07T14:54:59;16.60;99.90
36594;DHT22;22603;47.900;8.146;2023-05-07T14:57:46;16.90;99.90
36594;DHT22;22603;47.900;8.146;2023-05-07T15:00:33;17.10;99.90
36594;DHT22;22603;47.900;8.146;2023-05-07T15:03:20;17.40;99.90
36594;DHT22;22603;47.900;8.146;2023-05-07T15:06:09;17.70;99.90
36594;DHT22;22603;47.900;8.146;2023-05-07T15:08:57;17.80;99.90
36594;DHT22;22603;47.900;8.146;2023-05-07T15:11:45;17.80;99.90
36594;DHT22;22603;47.900;8.146;2023-05-07T15:14:32;17.20;99.90
36594;DHT22;22603;47.900;8.146;2023-05-07T15:17:19;17.40;99.90
36594;DHT22;22603;47.900;8.146;2023-05-07T15:20:11;17.50;99.90
36594;DHT22;22603;47.900;8.146;2023-05-07T15:22:58;17.60;99.90
36594;DHT22;22603;47.900;8.146;2023-05-07T15:25:47;17.40;99.90
36594;DHT22;22603;47.900;8.146;2023-05-07T15:28:37;17.30;99.90
36594;DHT22;22603;47.900;8.146;2023-05-07T15:31:25;17.10;99.90
36594;DHT22;22603;47.900;8.146;2023-05-07T15:34:12;16.90;99.90
36594;DHT22;22603;47.900;8.146;2023-05-07T15:37:00;16.70;99.90
36594;DHT22;22603;47.900;8.146;2023-05-07T15:39:48;16.60;99.90
36594;DHT22;22603;47.900;8.146;2023-05-07T15:42:37;16.50;99.90
36594;DHT22;22603;47.900;8.146;2023-05-07T15:45:24;16.60;99.90
36594;DHT22;22603;47.900;8.146;2023-05-07T15:48:11;16.60;99.90
36594;DHT22;22603;47.900;8.146;2023-05-07T15:50:58;16.60;99.90
36594;DHT22;22603;47.900;8.146;2023-05-07T15:53:45;16.60;99.90
36594;DHT22;22603;47.900;8.146;2023-05-07T15:56:32;16.60;99.90
36594;DHT22;22603;47.900;8.146;2023-05-07T15:59:20;16.50;99.90
36594;DHT22;22603;47.900;8.146;2023-05-07T16:02:07;16.40;99.90
36594;DHT22;22603;47.900;8.146;2023-05-07T16:04:55;16.40;99.90
36594;DHT22;22603;47.900;8.146;2023-05-07T16:07:53;16.30;99.90
36594;DHT22;22603;47.900;8.146;2023-05-07T16:10:42;16.20;99.90
36594;DHT22;22603;47.900;8.146;2023-05-07T16:13:29;16.20;99.90
36594;DHT22;22603;47.900;8.146;2023-05-07T16:16:18;16.00;99.90
36594;DHT22;22603;47.900;8.146;2023-05-07T16:19:06;15.90;99.90
36594;DHT22;22603;47.900;8.146;2023-05-07T16:21:54;16.00;99.90
36594;DHT22;22603;47.900;8.146;2023-05-07T16:24:41;15.90;99.90
36594;DHT22;22603;47.900;8.146;2023-05-07T16:27:28;15.90;99.90
36594;DHT22;22603;47.900;8.146;2023-05-07T16:30:15;16.00;99.90
36594;DHT22;22603;47.900;8.146;2023-05-07T16:33:04;16.10;99.90
36594;DHT22;22603;47.900;8.146;2023-05-07T16:35:52;16.10;99.90
36594;DHT22;22603;47.900;8.146;2023-05-07T16:38:39;15.90;99.90
36594;DHT22;22603;47.900;8.146;2023-05-07T16:41:26;16.00;99.90
36594;DHT22;22603;47.900;8.146;2023-05-07T16:44:13;16.00;99.90
36594;DHT22;22603;47.900;8.146;2023-05-07T16:47:00;15.90;99.90
36594;DHT22;22603;47.900;8.146;2023-05-07T16:49:49;15.80;99.90
36594;DHT22;22603;47.900;8.146;2023-05-07T16:52:36;15.80;99.90
36594;DHT22;22603;47.900;8.146;2023-05-07T16:55:23;15.80;99.90
36594;DHT22;22603;47.900;8.146;2023-05-07T16:58:11;15.70;99.90
36594;DHT22;22603;47.900;8.146;2023-05-07T17:00:58;15.70;99.90
36594;DHT22;22603;47.900;8.146;2023-05-07T17:03:45;15.70;99.90
36594;DHT22;22603;47.900;8.146;2023-05-07T17:06:33;15.40;99.90
36594;DHT22;22603;47.900;8.146;2023-05-07T17:09:21;15.20;99.90
36594;DHT22;22603;47.900;8.146;2023-05-07T17:12:08;15.20;99.90
36594;DHT22;22603;47.900;8.146;2023-05-07T17:14:55;15.30;99.90
36594;DHT22;22603;47.900;8.146;2023-05-07T17:17:42;15.30;99.90
36594;DHT22;22603;47.900;8.146;2023-05-07T17:20:30;15.30;99.90
36594;DHT22;22603;47.900;8.146;2023-05-07T17:23:18;15.30;99.90
36594;DHT22;22603;47.900;8.146;2023-05-07T17:26:10;15.20;99.90
36594;DHT22;22603;47.900;8.146;2023-05-07T17:28:58;15.20;99.90
36594;DHT22;22603;47.900;8.146;2023-05-07T17:31:45;15.10;99.90
36594;DHT22;22603;47.900;8.146;2023-05-07T17:34:34;15.10;99.90
36594;DHT22;22603;47.900;8.146;2023-05-07T17:37:21;15.00;99.90
36594;DHT22;22603;47.900;8.146;2023-05-07T17:40:12;15.00;99.90
36594;DHT22;22603;47.900;8.146;2023-05-07T17:43:00;14.90;99.90
36594;DHT22;22603;47.900;8.146;2023-05-07T17:45:47;14.90;99.90
36594;DHT22;22603;47.900;8.146;2023-05-07T17:48:34;14.80;99.90